Acrelandia, Brazil
Current Conditions -  °F | °C
As of 9:00 PM on Wednesday 17 Dec 2014 (Local Time) from SBRB Reporting Station
Scattered Clouds Scattered Clouds  
Wind Chill: 75°   Ceiling: Unl
Heat Index: 75°   Visibility: 6mi
Dew Point: 70°   Wind: 2mph
Humidity: 83%   Direction: 250°WSW
Pressure: 29.83"   Gusts: NA
Location:  9.83°S, 66.88°W
Report Text: SBRB 180100Z 25002KT 9999 FEW020 SCT100 24/21 Q1010
Loading
Personal Weather Stations






























Interactive Weather Map New forecast layout! Learn more

10-Day Weather Forecast

Advertisements
Track Severe Weather on mobile